Time;durP1;ratioP1;P1;durP2;ratioP2;P2;SDS_P1;SDS_P2;PMS_P1;PMS_P2;Temp;Humidity;BMP_temperature;BMP_pressure;BME280_temperature;BME280_humidity;BME280_pressure;Samples;Min_cycle;Max_cycle;Signal;HPM_P1;HPM_P2
2023/05/15 00:01:23;;;;;;;;;33.50;28.00;;;;;15.87;58.18;100999.41;5074998;27;45513;-82
2023/05/15 00:03:50;;;;;;;;;31.50;31.25;;;;;15.83;58.21;100994.53;5074528;27;45482;-82
2023/05/15 00:06:16;;;;;;;;;30.00;28.25;;;;;15.77;58.27;100995.91;5074717;27;46085;-81
2023/05/15 00:08:41;;;;;;;;;36.50;31.50;;;;;15.70;58.84;100989.50;5074841;28;45607;-84
2023/05/15 00:11:07;;;;;;;;;38.25;34.00;;;;;15.66;58.71;100997.78;5074919;27;45522;-82
2023/05/15 00:13:32;;;;;;;;;36.00;31.50;;;;;15.59;59.57;100994.88;5074719;27;46416;-83
2023/05/15 00:15:57;;;;;;;;;35.00;30.00;;;;;15.50;59.34;100985.03;5074478;27;45766;-82
2023/05/15 00:18:23;;;;;;;;;32.50;31.50;;;;;15.46;59.32;100983.63;5074434;27;45782;-80
2023/05/15 00:24:10;;;;;;;;;36.75;33.50;;;;;15.31;60.05;100983.16;5074129;28;46025;-80
2023/05/15 00:26:35;;;;;;;;;36.25;34.50;;;;;15.29;59.96;100981.59;5074569;27;45939;-79
2023/05/15 00:29:01;;;;;;;;;39.00;34.50;;;;;15.23;60.01;100977.66;5074145;27;45915;-80
2023/05/15 00:31:26;;;;;;;;;36.75;33.75;;;;;15.20;60.43;100980.56;5075297;27;45826;-80
2023/05/15 00:33:53;;;;;;;;;38.00;33.00;;;;;15.21;60.44;100987.53;5092259;27;47636;-81
2023/05/15 00:36:20;;;;;;;;;38.75;34.00;;;;;15.20;60.37;100977.09;5076527;27;45766;-81
2023/05/15 00:38:46;;;;;;;;;35.00;31.75;;;;;15.18;60.71;100971.09;5076376;27;45814;-81
2023/05/15 00:41:11;;;;;;;;;43.75;34.75;;;;;15.12;60.93;100968.00;5074782;27;45845;-80
2023/05/15 00:43:38;;;;;;;;;39.25;35.25;;;;;15.15;60.83;100964.28;5074199;27;45820;-81
2023/05/15 00:46:05;;;;;;;;;35.25;33.75;;;;;15.11;61.08;100960.25;5074738;28;46066;-81
2023/05/15 00:48:32;;;;;;;;;40.75;36.00;;;;;15.09;61.23;100955.09;5074483;27;45545;-81
2023/05/15 00:54:19;;;;;;;;;40.00;35.50;;;;;15.06;61.51;100954.53;5073741;28;45600;-82
2023/05/15 00:56:46;;;;;;;;;39.25;34.00;;;;;15.03;61.29;100957.41;5073755;28;45850;-82
2023/05/15 00:59:12;;;;;;;;;41.25;36.00;;;;;15.03;61.27;100960.03;5074006;27;45782;-80
2023/05/15 01:01:38;;;;;;;;;38.75;34.25;;;;;14.97;61.62;100964.03;5073953;27;45706;-80
2023/05/15 01:04:03;;;;;;;;;43.25;37.00;;;;;14.94;61.52;100955.53;5072186;28;47429;-83
2023/05/15 01:06:30;;;;;;;;;45.00;35.75;;;;;14.95;61.36;100958.03;5073839;27;45727;-81
2023/05/15 01:08:58;;;;;;;;;44.75;36.50;;;;;14.91;61.83;100959.25;5072296;28;45897;-81
2023/05/15 01:11:27;;;;;;;;;41.50;35.25;;;;;14.85;61.78;100967.69;5073865;27;45469;-82
2023/05/15 01:13:52;;;;;;;;;50.00;40.50;;;;;14.81;62.10;100961.00;5073712;27;46201;-80
2023/05/15 01:16:20;;;;;;;;;49.75;38.00;;;;;14.75;62.35;100958.03;5073744;27;45684;-80
2023/05/15 01:18:46;;;;;;;;;47.00;37.00;;;;;14.67;62.11;100961.31;5073675;27;45646;-80
2023/05/15 01:24:51;;;;;;;;;48.75;37.50;;;;;14.57;62.43;100966.50;5073148;28;45537;-80
2023/05/15 01:27:23;;;;;;;;;55.50;42.25;;;;;14.56;62.90;100971.91;5073505;27;46160;-76
2023/05/15 01:30:18;;;;;;;;;49.50;36.75;;;;;14.53;62.63;100961.59;5073558;27;45954;-82
2023/05/15 01:32:57;;;;;;;;;53.75;44.25;;;;;14.51;63.04;100961.72;5072097;28;45922;-81
2023/05/15 01:35:39;;;;;;;;;42.75;36.75;;;;;14.52;62.61;100960.75;5073358;27;45672;-83
2023/05/15 01:38:17;;;;;;;;;51.25;40.25;;;;;14.52;62.81;100965.22;5089411;27;46016;-82
2023/05/15 01:40:46;;;;;;;;;45.50;38.75;;;;;14.48;63.05;100961.97;5073537;27;45980;-80
2023/05/15 01:43:20;;;;;;;;;47.75;39.75;;;;;14.49;63.10;100960.16;5073911;27;45587;-82
2023/05/15 01:45:46;;;;;;;;;55.25;43.25;;;;;14.48;63.13;100961.97;5073566;27;46561;-82
2023/05/15 01:48:14;;;;;;;;;42.50;38.00;;;;;14.43;63.33;100956.22;5073391;27;46246;-83
2023/05/15 01:50:41;;;;;;;;;48.75;41.00;;;;;14.44;62.98;100963.19;5073377;27;46039;-82
2023/05/15 01:53:09;;;;;;;;;50.50;40.25;;;;;14.37;63.42;100971.72;5075015;27;45615;-82
2023/05/15 01:55:36;;;;;;;;;54.50;43.25;;;;;14.25;63.23;100965.63;5076523;27;45687;-78
2023/05/15 01:58:03;;;;;;;;;51.75;40.00;;;;;14.14;63.60;100955.09;5077472;27;46549;-80
2023/05/15 02:00:29;;;;;;;;;53.75;43.00;;;;;14.07;64.00;100956.56;5078255;27;45683;-80
2023/05/15 02:02:56;;;;;;;;;52.50;42.25;;;;;14.01;63.91;100957.88;5078321;27;45872;-81
2023/05/15 02:05:22;;;;;;;;;52.25;40.25;;;;;14.02;63.63;100963.97;5077141;27;46276;-79
2023/05/15 02:07:48;;;;;;;;;57.25;41.00;;;;;13.95;63.74;100968.06;5076755;27;46186;-81
2023/05/15 02:10:16;;;;;;;;;56.00;41.75;;;;;13.83;64.45;100954.06;5078010;27;45823;-82
2023/05/15 02:12:42;;;;;;;;;54.50;44.00;;;;;13.74;64.03;100950.38;5078131;28;45608;-81
2023/05/15 02:15:12;;;;;;;;;52.75;40.00;;;;;13.66;64.21;100947.47;5076827;27;46193;-82
2023/05/15 02:17:37;;;;;;;;;55.00;42.00;;;;;13.61;64.87;100961.97;5076966;28;45697;-80
2023/05/15 02:20:04;;;;;;;;;55.50;43.25;;;;;13.57;64.58;100958.75;5092038;27;45559;-82
2023/05/15 02:22:30;;;;;;;;;50.00;41.25;;;;;13.54;64.87;100955.53;5076731;28;45612;-81
2023/05/15 02:24:55;;;;;;;;;51.75;40.50;;;;;13.53;64.89;100959.09;5076075;27;45600;-82
2023/05/15 02:27:27;;;;;;;;;49.50;37.75;;;;;13.48;64.94;100954.19;5076000;27;46124;-81
2023/05/15 02:30:11;;;;;;;;;51.00;39.50;;;;;13.45;65.14;100955.25;5076169;27;45666;-81
2023/05/15 02:32:55;;;;;;;;;52.00;39.00;;;;;13.37;65.29;100962.09;5076654;28;45674;-81
2023/05/15 02:35:54;;;;;;;;;50.75;42.00;;;;;13.34;65.00;100962.31;5075936;27;45618;-83
2023/05/15 02:38:37;;;;;;;;;52.75;40.50;;;;;13.35;65.45;100962.19;5075538;28;45575;-82
2023/05/15 02:41:05;;;;;;;;;58.75;45.50;;;;;13.30;65.06;100964.34;5075978;27;45683;-81
2023/05/15 02:43:31;;;;;;;;;51.75;41.25;;;;;13.24;65.34;100950.81;5075844;28;45623;-83
2023/05/15 02:45:59;;;;;;;;;49.00;41.00;;;;;13.18;65.46;100948.66;5076018;28;46515;-81
2023/05/15 02:48:25;;;;;;;;;48.50;42.50;;;;;13.06;65.75;100937.25;5075821;27;46366;-84
2023/05/15 02:50:51;;;;;;;;;54.00;41.75;;;;;13.00;65.69;100942.97;5074276;28;45959;-82
2023/05/15 02:53:16;;;;;;;;;51.00;38.25;;;;;12.94;65.73;100939.03;5076222;27;45640;-82
2023/05/15 02:55:42;;;;;;;;;52.00;39.00;;;;;12.93;66.31;100937.34;5091024;27;46326;-84
2023/05/15 02:58:08;;;;;;;;;45.50;38.75;;;;;12.93;66.34;100947.88;5091092;27;48356;-83
2023/05/15 03:00:33;;;;;;;;;44.75;35.75;;;;;12.91;66.07;100939.25;5075866;27;45734;-84
2023/05/15 03:02:59;;;;;;;;;45.75;38.25;;;;;12.89;66.01;100937.69;5091667;27;45899;-81
2023/05/15 03:05:24;;;;;;;;;47.00;38.00;;;;;12.88;65.99;100947.38;5075706;27;45615;-82
2023/05/15 03:07:50;;;;;;;;;42.00;36.00;;;;;12.88;65.98;100949.16;5075597;28;46108;-80
2023/05/15 03:10:15;;;;;;;;;45.25;38.50;;;;;12.83;66.13;100940.78;5075896;27;45569;-79
2023/05/15 03:12:41;;;;;;;;;54.00;41.75;;;;;12.80;66.42;100947.09;5075901;28;45773;-80
2023/05/15 03:15:06;;;;;;;;;53.00;43.00;;;;;12.76;66.24;100950.91;5075849;27;46260;-83
2023/05/15 03:17:32;;;;;;;;;49.25;40.75;;;;;12.73;66.30;100932.75;5075542;28;46349;-81
2023/05/15 03:19:57;;;;;;;;;48.25;40.50;;;;;12.75;65.98;100946.59;5075779;27;45508;-85
2023/05/15 03:25:44;;;;;;;;;59.25;43.50;;;;;12.61;66.67;100946.81;5081166;28;46059;-80
2023/05/15 03:28:10;;;;;;;;;52.75;39.25;;;;;12.57;66.63;100935.69;5080199;27;45795;-84
2023/05/15 03:30:36;;;;;;;;;47.00;37.00;;;;;12.48;66.85;100938.97;5077984;27;45608;-82
2023/05/15 03:33:02;;;;;;;;;49.00;38.00;;;;;12.44;66.83;100934.06;5077287;27;45757;-82
2023/05/15 03:35:29;;;;;;;;;54.25;41.00;;;;;12.41;67.13;100929.88;5092456;27;47948;-84
2023/05/15 03:37:54;;;;;;;;;52.75;40.25;;;;;12.38;67.19;100918.75;5075399;27;46149;-83
2023/05/15 03:40:19;;;;;;;;;49.25;38.00;;;;;12.40;66.83;100930.84;5075470;27;45511;-81
2023/05/15 03:42:45;;;;;;;;;53.00;42.50;;;;;12.36;66.76;100939.88;5075610;27;45518;-84
2023/05/15 03:45:10;;;;;;;;;53.50;39.00;;;;;12.31;67.24;100920.97;5075195;27;46437;-83
2023/05/15 03:47:36;;;;;;;;;53.50;40.25;;;;;12.28;67.08;100918.59;5074898;27;45521;-83
2023/05/15 03:50:01;;;;;;;;;51.00;43.25;;;;;12.27;67.48;100932.66;5075528;27;45533;-82
2023/05/15 03:55:49;;;;;;;;;58.00;41.00;;;;;12.26;67.34;100927.50;5074489;28;46121;-84
2023/05/15 03:58:14;;;;;;;;;51.00;40.25;;;;;12.28;67.66;100926.47;5074993;27;45615;-80
2023/05/15 04:00:39;;;;;;;;;50.25;41.75;;;;;12.34;67.23;100927.81;5073176;28;45670;-83
2023/05/15 04:03:05;;;;;;;;;44.50;38.75;;;;;12.37;67.15;100935.44;5074882;27;45526;-85
2023/05/15 04:05:30;;;;;;;;;45.50;38.00;;;;;12.38;67.06;100942.38;5074677;27;46862;-82
2023/05/15 04:07:56;;;;;;;;;50.00;41.75;;;;;12.35;67.28;100932.13;5074550;27;45922;-82
2023/05/15 04:10:21;;;;;;;;;44.50;36.75;;;;;12.26;67.01;100933.59;5074858;27;45632;-82
2023/05/15 04:12:47;;;;;;;;;51.00;39.50;;;;;12.24;67.05;100934.69;5074850;27;45753;-81
2023/05/15 04:15:15;;;;;;;;;47.00;36.50;;;;;12.25;67.02;100936.38;5073932;27;45631;-81
2023/05/15 04:17:42;;;;;;;;;46.75;35.50;;;;;12.28;67.08;100938.75;5074387;27;45641;-84
2023/05/15 04:20:08;;;;;;;;;49.75;38.50;;;;;12.26;67.20;100941.50;5074384;27;45525;-83
2023/05/15 04:25:56;;;;;;;;;48.00;37.00;;;;;12.21;67.06;100941.00;5074267;28;45628;-81
2023/05/15 04:28:21;;;;;;;;;46.75;38.50;;;;;12.14;67.01;100934.53;5074227;27;45727;-83
2023/05/15 04:30:46;;;;;;;;;46.50;35.00;;;;;12.13;67.33;100940.72;5089852;27;45735;-79
2023/05/15 04:33:12;;;;;;;;;47.75;34.50;;;;;12.12;67.35;100934.63;5074628;27;45685;-81
2023/05/15 04:35:38;;;;;;;;;42.00;37.00;;;;;12.10;67.78;100936.50;5074207;28;46221;-82
2023/05/15 04:41:39;;;;;;;;;53.00;39.50;;;;;11.96;67.67;100931.44;5065260;27;45870;-81
2023/05/15 04:44:05;;;;;;;;;32.75;30.75;;;;;11.99;67.51;100928.56;5074690;27;45474;-80
2023/05/15 04:46:33;;;;;;;;;49.25;36.50;;;;;12.01;68.02;100931.94;5074084;27;45644;-80
2023/05/15 04:48:59;;;;;;;;;52.25;38.25;;;;;12.03;67.65;100937.09;5074375;27;45997;-80
2023/05/15 04:51:24;;;;;;;;;45.75;36.75;;;;;12.03;67.73;100934.47;5074806;28;45603;-79
2023/05/15 04:53:49;;;;;;;;;42.25;36.25;;;;;12.02;67.89;100940.66;5076003;27;45641;-81
2023/05/15 04:56:15;;;;;;;;;50.75;38.50;;;;;12.03;67.78;100940.56;5075716;27;45823;-80
2023/05/15 04:58:40;;;;;;;;;44.00;34.50;;;;;12.02;67.75;100936.25;5075792;27;46295;-80
2023/05/15 05:01:05;;;;;;;;;46.00;39.00;;;;;12.04;67.74;100939.56;5075838;27;45529;-81
2023/05/15 05:03:31;;;;;;;;;46.75;35.75;;;;;12.06;67.82;100931.59;5075307;27;45681;-80
2023/05/15 05:05:56;;;;;;;;;45.00;39.00;;;;;12.04;67.83;100913.31;5075116;27;45894;-81
2023/05/15 05:11:43;;;;;;;;;45.75;38.25;;;;;12.07;67.98;100928.03;5073570;28;45793;-77
2023/05/15 05:14:10;;;;;;;;;43.75;36.25;;;;;12.11;67.87;100924.22;5073741;27;45650;-77
2023/05/15 05:16:35;;;;;;;;;53.00;40.00;;;;;12.17;67.94;100929.03;5075806;28;46876;-77
2023/05/15 05:19:01;;;;;;;;;39.25;35.00;;;;;12.18;67.71;100923.69;5073634;27;45773;-77
2023/05/15 05:21:26;;;;;;;;;42.25;35.75;;;;;12.26;67.64;100922.25;5073551;27;45710;-77
2023/05/15 05:23:51;;;;;;;;;40.25;36.00;;;;;12.34;67.67;100928.66;5074028;28;45704;-77
2023/05/15 05:26:17;;;;;;;;;47.00;38.75;;;;;12.37;67.63;100927.56;5073478;27;45557;-76
2023/05/15 05:28:43;;;;;;;;;47.50;36.75;;;;;12.37;67.68;100919.69;5075300;28;46493;-77
2023/05/15 05:31:09;;;;;;;;;42.25;37.25;;;;;12.39;67.76;100918.63;5077059;27;45618;-76
2023/05/15 05:33:35;;;;;;;;;39.50;31.50;;;;;12.40;67.65;100930.84;5092702;27;45549;-76
2023/05/15 05:36:00;;;;;;;;;45.25;35.25;;;;;12.42;67.61;100928.06;5076267;27;45665;-76
2023/05/15 05:41:47;;;;;;;;;48.50;35.75;;;;;12.38;67.97;100934.50;5072531;28;45701;-76
2023/05/15 05:44:12;;;;;;;;;42.25;36.00;;;;;12.38;68.16;100929.25;5076775;27;45485;-76
2023/05/15 05:46:38;;;;;;;;;40.00;31.25;;;;;12.39;68.55;100938.81;5076112;27;45589;-75
2023/05/15 05:49:03;;;;;;;;;45.00;37.25;;;;;12.37;68.52;100944.19;5076332;27;45616;-75
2023/05/15 05:51:30;;;;;;;;;37.75;33.00;;;;;12.38;68.69;100931.88;5076345;27;45693;-75
2023/05/15 05:53:55;;;;;;;;;44.50;36.00;;;;;12.41;68.98;100937.78;5076263;27;45512;-75
2023/05/15 05:56:21;;;;;;;;;36.50;29.50;;;;;12.44;68.71;100926.19;5076214;27;46320;-76
2023/05/15 05:58:46;;;;;;;;;41.25;36.00;;;;;12.48;69.11;100935.50;5076563;27;45623;-75
2023/05/15 06:01:12;;;;;;;;;41.75;34.75;;;;;12.48;69.25;100930.25;5076258;27;45764;-78
2023/05/15 06:03:38;;;;;;;;;44.50;36.50;;;;;12.52;69.37;100937.78;5076368;27;45693;-77
2023/05/15 06:06:04;;;;;;;;;39.75;34.50;;;;;12.50;69.35;100929.19;5076115;27;46809;-76
2023/05/15 06:11:51;;;;;;;;;45.00;35.25;;;;;12.51;70.13;100943.19;5076163;28;45480;-76
2023/05/15 06:14:16;;;;;;;;;39.75;30.00;;;;;12.51;70.23;100946.66;5076371;28;45592;-76
2023/05/15 06:16:42;;;;;;;;;39.75;35.75;;;;;12.51;70.14;100945.81;5076193;27;46640;-75
2023/05/15 06:19:08;;;;;;;;;41.75;32.00;;;;;12.51;70.19;100949.28;5076111;28;45629;-75
2023/05/15 06:21:33;;;;;;;;;38.75;33.50;;;;;12.50;70.55;100946.75;5076354;27;45585;-75
2023/05/15 06:27:20;;;;;;;;;42.25;34.75;;;;;12.56;70.72;100954.19;5075726;28;45579;-76
2023/05/15 06:29:48;;;;;;;;;35.75;32.75;;;;;12.56;70.60;100955.03;5075999;27;45578;-76
2023/05/15 06:32:14;;;;;;;;;44.25;37.00;;;;;12.59;70.31;100957.41;5076461;28;45800;-75
2023/05/15 06:34:39;;;;;;;;;45.75;37.50;;;;;12.63;70.81;100958.88;5076292;27;45693;-76
2023/05/15 06:37:04;;;;;;;;;40.00;32.50;;;;;12.67;70.88;100956.03;5075791;27;46792;-76
2023/05/15 06:39:30;;;;;;;;;50.50;38.00;;;;;12.68;70.60;100965.59;5075086;27;45676;-76
2023/05/15 06:42:00;;;;;;;;;45.50;37.50;;;;;12.71;70.50;100955.69;5075584;27;45634;-75
2023/05/15 06:44:25;;;;;;;;;44.00;35.25;;;;;12.73;70.61;100961.69;5075915;27;45700;-77
2023/05/15 06:46:50;;;;;;;;;39.75;33.75;;;;;12.76;70.42;100950.91;5075747;27;45564;-75
2023/05/15 06:49:16;;;;;;;;;39.00;34.00;;;;;12.80;70.20;100941.00;5075810;27;46096;-77
2023/05/15 06:51:41;;;;;;;;;41.50;36.00;;;;;12.86;70.69;100951.91;5091395;27;45704;-76
2023/05/15 06:57:28;;;;;;;;;49.75;38.50;;;;;12.92;70.63;100946.19;5075405;28;46100;-75
2023/05/15 06:59:53;;;;;;;;;34.75;27.25;;;;;12.94;70.89;100957.44;5075555;27;46410;-75
2023/05/15 07:02:19;;;;;;;;;47.25;37.75;;;;;12.97;70.48;100948.47;5075584;27;45509;-76
2023/05/15 07:04:44;;;;;;;;;42.50;35.75;;;;;12.99;70.41;100955.28;5075563;27;45804;-76
2023/05/15 07:07:09;;;;;;;;;40.75;36.50;;;;;13.06;70.45;100952.19;5075492;27;45621;-76
2023/05/15 07:09:35;;;;;;;;;33.50;31.50;;;;;13.07;70.56;100959.97;5075321;27;45624;-76
2023/05/15 07:12:00;;;;;;;;;39.00;34.75;;;;;13.09;70.54;100951.97;5091062;27;45654;-76
2023/05/15 07:14:26;;;;;;;;;36.25;31.75;;;;;13.08;70.51;100953.75;5075484;27;45482;-75
2023/05/15 07:16:51;;;;;;;;;33.25;28.50;;;;;13.08;70.06;100948.50;5075213;27;46397;-76
2023/05/15 07:19:19;;;;;;;;;34.50;29.00;;;;;13.09;70.08;100934.38;5075324;27;45811;-77
2023/05/15 07:21:45;;;;;;;;;36.00;30.25;;;;;13.18;70.06;100946.00;5075595;27;45787;-76
2023/05/15 07:27:32;;;;;;;;;45.50;34.75;;;;;13.26;70.33;100939.22;5074815;28;46160;-76
2023/05/15 07:29:57;;;;;;;;;40.50;34.00;;;;;13.30;70.63;100940.66;5074984;27;46622;-76
2023/05/15 07:32:23;;;;;;;;;37.75;30.00;;;;;13.29;70.12;100940.78;5075198;27;45712;-75
2023/05/15 07:34:48;;;;;;;;;37.50;32.00;;;;;13.30;70.53;100940.66;5075262;27;45548;-76
2023/05/15 07:37:13;;;;;;;;;39.50;35.00;;;;;13.32;70.03;100944.03;5075142;27;46594;-76
2023/05/15 07:43:00;;;;;;;;;39.50;30.00;;;;;13.36;70.02;100940.19;5063044;28;45611;-76
2023/05/15 07:45:26;;;;;;;;;46.50;36.25;;;;;13.36;70.30;100940.19;5075196;27;45700;-76
2023/05/15 07:47:51;;;;;;;;;40.50;32.50;;;;;13.40;70.11;100943.41;5074745;27;45663;-77
2023/05/15 07:50:17;;;;;;;;;40.25;33.25;;;;;13.41;70.54;100947.72;5073712;27;45536;-76
2023/05/15 07:52:43;;;;;;;;;30.00;25.50;;;;;13.40;70.00;100949.53;5075057;27;45637;-78
2023/05/15 07:55:11;;;;;;;;;35.00;27.75;;;;;13.42;70.69;100944.16;5075292;27;45605;-77
2023/05/15 07:57:39;;;;;;;;;42.50;34.50;;;;;13.49;70.15;100947.16;5074862;27;45480;-76
2023/05/15 08:00:11;;;;;;;;;26.25;20.75;;;;;13.53;70.48;100952.03;5074867;27;45643;-76
2023/05/15 08:02:37;;;;;;;;;39.75;32.00;;;;;13.58;69.90;100943.78;5074643;27;45634;-76
2023/05/15 08:05:02;;;;;;;;;35.75;32.00;;;;;13.62;69.95;100946.06;5074664;27;46196;-76
2023/05/15 08:07:32;;;;;;;;;36.00;30.00;;;;;13.65;70.06;100951.09;5074636;27;45490;-76
2023/05/15 08:13:18;;;;;;;;;34.75;30.25;;;;;13.69;70.51;100960.44;5074146;28;45872;-76
2023/05/15 08:15:44;;;;;;;;;34.00;30.50;;;;;13.69;70.38;100949.06;5074914;27;45545;-77
2023/05/15 08:18:10;;;;;;;;;37.75;30.50;;;;;13.70;70.48;100945.47;5074501;27;46665;-75
2023/05/15 08:20:37;;;;;;;;;37.00;31.00;;;;;13.73;70.18;100951.31;5074327;27;45526;-75
2023/05/15 08:23:02;;;;;;;;;35.25;25.50;;;;;13.74;70.29;100953.00;5074222;27;45575;-75
2023/05/15 08:25:28;;;;;;;;;42.75;35.00;;;;;13.80;70.45;100944.63;5074418;27;45734;-76
2023/05/15 08:27:53;;;;;;;;;39.75;31.25;;;;;13.85;70.34;100939.81;5074083;27;46941;-75
2023/05/15 08:30:18;;;;;;;;;43.75;34.75;;;;;13.88;70.07;100936.09;5072698;28;46181;-77
2023/05/15 08:32:47;;;;;;;;;48.00;35.00;;;;;13.93;69.81;100941.03;5074387;27;45735;-76
2023/05/15 08:35:13;;;;;;;;;38.75;32.00;;;;;13.98;70.23;100942.28;5074413;27;45520;-76
2023/05/15 08:37:39;;;;;;;;;37.50;34.00;;;;;14.03;69.87;100940.16;5073971;27;45559;-75
2023/05/15 08:43:29;;;;;;;;;38.50;31.00;;;;;14.13;69.82;100927.06;5069729;28;45601;-77
2023/05/15 08:45:55;;;;;;;;;40.50;32.25;;;;;14.18;69.94;100930.19;5074158;27;45687;-77
2023/05/15 08:48:24;;;;;;;;;37.75;32.25;;;;;14.22;69.79;100929.78;5073793;27;46238;-77
2023/05/15 08:50:51;;;;;;;;;38.75;34.50;;;;;14.27;69.49;100927.63;5072177;28;47283;-76
2023/05/15 08:53:17;;;;;;;;;45.50;35.75;;;;;14.32;69.20;100929.88;5073630;27;45672;-77
2023/05/15 08:55:43;;;;;;;;;38.25;34.25;;;;;14.39;69.46;100924.97;5074034;27;45733;-77
2023/05/15 08:58:09;;;;;;;;;39.00;31.75;;;;;14.44;69.44;100918.38;5073624;27;45497;-74
2023/05/15 09:00:34;;;;;;;;;43.00;36.50;;;;;14.52;69.13;100925.66;5073602;27;45695;-75
2023/05/15 09:03:00;;;;;;;;;38.75;34.00;;;;;14.56;69.11;100932.34;5073413;27;45613;-75
2023/05/15 09:05:27;;;;;;;;;42.50;36.75;;;;;14.60;68.79;100929.31;5073846;27;45529;-75
2023/05/15 09:07:54;;;;;;;;;39.25;33.00;;;;;14.63;68.93;100930.84;5089026;27;46309;-75
2023/05/15 09:13:41;;;;;;;;;51.00;37.00;;;;;14.73;68.58;100928.31;5073341;28;45567;-75
2023/05/15 09:16:06;;;;;;;;;47.25;38.00;;;;;14.76;68.61;100930.69;5073551;27;45801;-75
2023/05/15 09:18:32;;;;;;;;;50.75;37.75;;;;;14.79;68.44;100933.09;5073427;27;46189;-75
2023/05/15 09:21:26;;;;;;;;;42.50;35.25;;;;;14.84;68.26;100931.75;5073386;27;46214;-75
2023/05/15 09:23:52;;;;;;;;;46.50;39.75;;;;;14.90;68.27;100933.84;5073527;27;45591;-76
2023/05/15 09:26:17;;;;;;;;;37.75;33.50;;;;;14.93;68.05;100925.69;5073293;27;45690;-75
2023/05/15 09:28:43;;;;;;;;;49.50;37.25;;;;;14.98;67.70;100923.50;5073351;27;46309;-76
2023/05/15 09:31:09;;;;;;;;;47.75;38.75;;;;;15.03;67.74;100942.41;5073557;27;45816;-75
2023/05/15 09:33:41;;;;;;;;;52.25;38.25;;;;;15.04;67.58;100922.13;5073063;27;45632;-75
2023/05/15 09:36:07;;;;;;;;;44.75;36.25;;;;;15.08;67.46;100927.03;5088808;27;45688;-74
2023/05/15 09:38:34;;;;;;;;;48.25;36.00;;;;;15.15;67.32;100913.31;5073240;27;46494;-75
2023/05/15 09:41:07;;;;;;;;;47.25;37.50;;;;;15.21;67.33;100915.44;5073016;27;47192;-77
2023/05/15 09:43:37;;;;;;;;;55.25;39.25;;;;;15.27;67.22;100926.31;5072639;27;45821;-78
2023/05/15 09:46:03;;;;;;;;;50.00;37.00;;;;;15.32;66.91;100916.19;5073183;27;45521;-75
2023/05/15 09:48:30;;;;;;;;;53.75;39.00;;;;;15.38;66.59;100920.09;5073037;28;46354;-75
2023/05/15 09:50:56;;;;;;;;;45.25;36.50;;;;;15.43;66.45;100917.91;5073211;27;46142;-76
2023/05/15 09:59:28;;;;;;;;;45.75;37.00;;;;;15.58;66.40;100934.25;5072596;28;45619;-78
2023/05/15 10:01:54;;;;;;;;;44.75;36.00;;;;;15.62;66.03;100925.91;5073006;27;46741;-77
2023/05/15 10:04:19;;;;;;;;;47.75;37.50;;;;;15.67;65.96;100930.78;5072907;28;45478;-77
2023/05/15 10:06:47;;;;;;;;;37.25;32.00;;;;;15.73;65.94;100930.25;5073051;27;45601;-77
2023/05/15 10:09:13;;;;;;;;;42.50;35.50;;;;;15.77;65.79;100916.63;5072937;27;46461;-76
2023/05/15 10:11:40;;;;;;;;;43.50;36.75;;;;;15.82;65.50;100924.16;5072902;27;46703;-77
2023/05/15 10:14:08;;;;;;;;;44.50;36.00;;;;;15.85;65.45;100916.81;5073982;27;45568;-77
2023/05/15 10:16:35;;;;;;;;;40.25;34.50;;;;;15.88;65.29;100934.19;5076383;27;45739;-77
2023/05/15 10:19:05;;;;;;;;;52.25;38.75;;;;;15.91;65.16;100928.66;5076076;27;45493;-76
2023/05/15 10:21:33;;;;;;;;;43.50;37.00;;;;;15.95;65.34;100933.53;5076189;27;46218;-77
2023/05/15 10:24:00;;;;;;;;;45.75;36.00;;;;;15.98;64.94;100935.06;5076021;27;45529;-77
2023/05/15 10:26:39;;;;;;;;;50.00;39.00;;;;;16.00;64.88;100930.47;5076230;27;45515;-77
2023/05/15 10:29:09;;;;;;;;;46.75;37.00;;;;;16.00;64.92;100935.75;5074138;28;47747;-76
2023/05/15 10:31:37;;;;;;;;;47.00;37.75;;;;;16.05;64.91;100930.91;5076185;27;46070;-77
2023/05/15 10:34:04;;;;;;;;;44.75;37.25;;;;;16.09;65.10;100926.16;5074322;28;45820;-76
2023/05/15 10:36:34;;;;;;;;;42.50;36.00;;;;;16.15;64.75;100912.41;5076058;27;45805;-77
2023/05/15 10:39:02;;;;;;;;;44.50;36.00;;;;;16.20;64.44;100916.31;5077150;27;45663;-74
2023/05/15 10:41:29;;;;;;;;;44.00;35.75;;;;;16.20;64.49;100910.19;5076983;27;45719;-77
2023/05/15 10:43:57;;;;;;;;;50.00;38.00;;;;;16.26;64.60;100917.56;5075458;27;45695;-77
2023/05/15 10:46:23;;;;;;;;;46.75;37.25;;;;;16.30;64.13;100926.91;5075854;28;45478;-76
2023/05/15 10:48:50;;;;;;;;;45.25;35.75;;;;;16.34;64.02;100925.66;5075746;27;46668;-77
2023/05/15 10:51:38;;;;;;;;;45.75;36.50;;;;;16.38;64.33;100914.66;5075809;27;46126;-77
2023/05/15 10:54:04;;;;;;;;;49.25;37.25;;;;;16.45;64.19;100909.66;5075886;28;45580;-77
2023/05/15 10:56:33;;;;;;;;;49.00;37.25;;;;;16.51;63.93;100924.13;5074077;28;45944;-77
2023/05/15 10:59:05;;;;;;;;;48.25;36.00;;;;;16.56;63.93;100921.91;5075610;27;45462;-77
2023/05/15 11:01:33;;;;;;;;;43.00;33.25;;;;;16.59;63.38;100911.91;5075724;27;46488;-77
2023/05/15 11:04:16;;;;;;;;;40.00;35.00;;;;;16.64;63.21;100917.59;5075359;27;45453;-77
2023/05/15 11:06:47;;;;;;;;;35.75;32.00;;;;;16.70;63.04;100926.78;5075702;27;45562;-77
2023/05/15 11:09:21;;;;;;;;;41.25;35.00;;;;;16.73;62.84;100921.25;5075288;28;45563;-77
2023/05/15 11:11:59;;;;;;;;;43.75;36.00;;;;;16.76;62.93;100913.00;5075510;28;45568;-77
2023/05/15 11:14:31;;;;;;;;;40.50;33.50;;;;;16.81;62.70;100917.88;5075243;27;45877;-77
2023/05/15 11:16:59;;;;;;;;;44.25;34.25;;;;;16.83;62.54;100919.41;5075380;28;45538;-78
2023/05/15 11:19:27;;;;;;;;;44.25;34.75;;;;;16.89;62.73;100908.25;5075094;27;45555;-76
2023/05/15 11:21:56;;;;;;;;;39.50;33.50;;;;;16.92;62.97;100910.63;5075277;27;46216;-75
2023/05/15 11:24:45;;;;;;;;;40.25;34.75;;;;;16.98;62.42;100919.81;5074906;27;45815;-77
2023/05/15 11:27:15;;;;;;;;;38.25;34.75;;;;;17.03;62.34;100923.69;5075257;28;45846;-77
2023/05/15 11:30:06;;;;;;;;;44.00;35.75;;;;;17.05;62.45;100920.91;5074916;27;45639;-77
2023/05/15 11:32:49;;;;;;;;;43.75;35.00;;;;;17.07;62.35;100925.06;5074848;28;47208;-76
2023/05/15 11:35:21;;;;;;;;;48.00;36.00;;;;;17.05;61.83;100921.75;5075138;27;45867;-76
2023/05/15 11:37:52;;;;;;;;;41.25;34.75;;;;;17.03;61.93;100912.25;5075141;27;45621;-76
2023/05/15 11:40:29;;;;;;;;;42.75;34.25;;;;;17.03;62.13;100912.25;5074708;27;46318;-75
2023/05/15 11:43:16;;;;;;;;;45.00;35.25;;;;;17.06;62.19;100910.16;5074632;28;46295;-76
2023/05/15 11:45:42;;;;;;;;;41.25;35.50;;;;;17.08;62.19;100912.66;5074882;27;45512;-77
2023/05/15 11:48:12;;;;;;;;;40.00;35.50;;;;;17.12;62.01;100914.03;5075126;27;45855;-77
2023/05/15 11:50:37;;;;;;;;;42.50;34.00;;;;;17.12;62.18;100919.34;5074700;27;45696;-76
2023/05/15 11:53:05;;;;;;;;;38.25;32.25;;;;;17.13;62.19;100907.78;5090173;27;47465;-76
2023/05/15 11:55:35;;;;;;;;;37.25;31.00;;;;;17.13;61.72;100905.97;5074526;27;45902;-77
2023/05/15 11:58:02;;;;;;;;;40.50;33.50;;;;;17.09;61.67;100901.09;5074865;27;45612;-77
2023/05/15 12:00:28;;;;;;;;;39.75;33.25;;;;;17.04;62.46;100909.47;5074535;27;46744;-78
2023/05/15 12:02:53;;;;;;;;;42.75;33.50;;;;;17.05;62.64;100918.25;5090056;27;46323;-76
2023/05/15 12:05:19;;;;;;;;;47.50;35.00;;;;;17.04;62.87;100916.59;5089814;27;45602;-77
2023/05/15 12:07:45;;;;;;;;;36.50;32.75;;;;;17.02;63.09;100914.06;5074685;27;45689;-76
2023/05/15 12:10:12;;;;;;;;;41.25;34.00;;;;;17.01;63.34;100909.75;5074546;27;46134;-77
2023/05/15 12:12:39;;;;;;;;;35.00;30.75;;;;;17.00;63.88;100902.81;5074407;27;46333;-76
2023/05/15 12:15:08;;;;;;;;;40.00;32.50;;;;;17.02;63.72;100903.47;5074644;28;45513;-76